createdAt,value
2018-05-04T00:01:33.941Z,15.00
2018-05-04T00:04:01.511Z,15.10
2018-05-04T00:06:29.072Z,15.10
2018-05-04T00:08:56.652Z,15.10
2018-05-04T00:11:24.206Z,15.00
2018-05-04T00:13:51.930Z,15.00
2018-05-04T00:16:20.245Z,15.10
2018-05-04T00:18:47.792Z,15.10
2018-05-04T00:21:15.366Z,15.10
2018-05-04T00:23:42.913Z,15.00
2018-05-04T00:26:10.490Z,15.00
2018-05-04T00:28:38.039Z,15.00
2018-05-04T00:31:05.609Z,15.00
2018-05-04T00:33:33.158Z,15.00
2018-05-04T00:36:00.724Z,15.00
2018-05-04T00:38:28.275Z,15.00
2018-05-04T00:40:55.857Z,15.00
2018-05-04T00:43:23.405Z,14.90
2018-05-04T00:45:50.981Z,14.90
2018-05-04T00:48:18.534Z,14.90
2018-05-04T00:50:46.110Z,14.80
2018-05-04T00:53:13.653Z,14.90
2018-05-04T00:55:41.229Z,14.80
2018-05-04T00:58:08.813Z,14.80
2018-05-04T01:00:36.395Z,14.70
2018-05-04T01:03:03.946Z,14.70
2018-05-04T01:05:31.515Z,14.70
2018-05-04T01:07:59.072Z,14.60
2018-05-04T01:10:26.650Z,14.60
2018-05-04T01:12:54.209Z,14.50
2018-05-04T01:15:21.939Z,14.50
2018-05-04T01:17:49.485Z,14.40
2018-05-04T01:20:17.825Z,14.30
2018-05-04T01:22:46.226Z,14.30
2018-05-04T01:25:13.805Z,14.30
2018-05-04T01:27:41.348Z,14.30
2018-05-04T01:30:09.695Z,14.10
2018-05-04T01:32:37.310Z,14.10
2018-05-04T01:35:04.865Z,14.10
2018-05-04T01:37:32.437Z,14.00
2018-05-04T01:39:59.990Z,14.00
2018-05-04T01:42:27.582Z,14.00
2018-05-04T01:44:55.137Z,13.90
2018-05-04T01:47:22.711Z,13.80
2018-05-04T01:49:50.253Z,13.70
2018-05-04T01:52:17.885Z,13.70
2018-05-04T01:54:45.428Z,13.60
2018-05-04T01:57:13.006Z,13.60
2018-05-04T01:59:40.555Z,13.50
2018-05-04T02:02:08.129Z,13.40
2018-05-04T02:04:36.515Z,13.40
2018-05-04T02:07:04.085Z,13.30
2018-05-04T02:09:31.633Z,13.30
2018-05-04T02:11:59.207Z,13.30
2018-05-04T02:14:26.751Z,13.20
2018-05-04T02:16:54.324Z,13.20
2018-05-04T02:19:21.885Z,13.20
2018-05-04T02:21:49.452Z,13.20
2018-05-04T02:24:17.002Z,13.10
2018-05-04T02:26:44.587Z,13.10
2018-05-04T02:29:12.138Z,13.10
2018-05-04T02:31:39.709Z,13.00
2018-05-04T02:34:07.262Z,13.00
2018-05-04T02:36:34.817Z,13.00
2018-05-04T02:39:02.417Z,13.00
2018-05-04T02:41:29.966Z,13.00
2018-05-04T02:43:58.305Z,12.90
2018-05-04T02:46:25.861Z,12.90
2018-05-04T02:48:53.470Z,12.90
2018-05-04T02:51:21.566Z,12.80
2018-05-04T02:53:49.154Z,12.80
2018-05-04T02:56:16.702Z,12.80
2018-05-04T02:58:44.272Z,12.70
2018-05-04T03:01:11.845Z,12.70
2018-05-04T03:03:39.422Z,12.60
2018-05-04T03:06:07.736Z,12.70
2018-05-04T03:08:35.314Z,12.70
2018-05-04T03:11:02.868Z,12.60
2018-05-04T03:13:30.454Z,12.60
2018-05-04T03:15:58.009Z,12.50
2018-05-04T03:18:25.581Z,12.40
2018-05-04T03:20:53.134Z,12.40
2018-05-04T03:23:20.700Z,12.40
2018-05-04T03:25:49.021Z,12.30
2018-05-04T03:28:16.589Z,12.30
2018-05-04T03:30:44.170Z,12.30
2018-05-04T03:33:11.749Z,12.20
2018-05-04T03:35:39.292Z,12.20
2018-05-04T03:38:07.179Z,12.10
2018-05-04T03:40:34.737Z,12.00
2018-05-04T03:43:03.093Z,11.90
2018-05-04T03:45:30.638Z,11.90
2018-05-04T03:47:58.201Z,11.80
2018-05-04T03:50:25.773Z,11.60
2018-05-04T03:52:53.498Z,11.50
2018-05-04T03:55:21.075Z,11.50
2018-05-04T03:58:00.426Z,11.60
2018-05-04T04:00:40.310Z,11.70
2018-05-04T04:03:19.786Z,11.50
2018-05-04T04:05:47.357Z,11.40
2018-05-04T04:08:14.905Z,11.20
2018-05-04T04:10:42.480Z,11.20
2018-05-04T04:13:10.036Z,11.20
2018-05-04T04:15:37.612Z,11.10
2018-05-04T04:18:05.243Z,11.00
2018-05-04T04:20:32.754Z,11.20
2018-05-04T04:23:01.066Z,11.00
2018-05-04T04:25:28.638Z,11.00
2018-05-04T04:27:56.190Z,10.90
2018-05-04T04:30:23.761Z,10.90
2018-05-04T04:32:52.072Z,10.90
2018-05-04T04:35:19.660Z,10.90
2018-05-04T04:37:47.209Z,11.00
2018-05-04T04:40:15.553Z,10.90
2018-05-04T04:42:43.097Z,11.00
2018-05-04T04:45:10.678Z,10.90
2018-05-04T04:47:38.219Z,10.90
2018-05-04T04:50:05.788Z,10.90
2018-05-04T04:52:33.339Z,11.00
2018-05-04T04:55:00.913Z,11.00
2018-05-04T04:57:28.453Z,11.00
2018-05-04T04:59:56.029Z,11.00
2018-05-04T05:02:23.579Z,11.10
2018-05-04T05:04:51.135Z,11.20
2018-05-04T05:07:18.711Z,11.20
2018-05-04T05:09:47.033Z,11.40
2018-05-04T05:12:14.610Z,11.40
2018-05-04T05:14:42.193Z,11.40
2018-05-04T05:17:09.769Z,11.50
2018-05-04T05:19:38.086Z,11.70
2018-05-04T05:22:05.683Z,11.60
2018-05-04T05:24:33.239Z,11.70
2018-05-04T05:27:00.817Z,11.80
2018-05-04T05:29:28.425Z,11.90
2018-05-04T05:31:56.001Z,12.00
2018-05-04T05:34:23.544Z,12.10
2018-05-04T05:36:51.121Z,12.30
2018-05-04T05:39:18.666Z,12.60
2018-05-04T05:41:46.245Z,12.90
2018-05-04T05:44:14.377Z,13.30
2018-05-04T05:46:41.960Z,13.70
2018-05-04T05:49:09.510Z,14.00
2018-05-04T05:51:37.093Z,14.40
2018-05-04T05:54:04.649Z,14.80
2018-05-04T05:56:32.985Z,15.50
2018-05-04T05:59:01.154Z,15.40
2018-05-04T06:01:28.728Z,15.80
2018-05-04T06:03:56.288Z,16.10
2018-05-04T06:06:23.866Z,16.50
2018-05-04T06:08:51.422Z,16.90
2018-05-04T06:11:19.010Z,17.30
2018-05-04T06:13:46.557Z,17.60
2018-05-04T06:16:24.972Z,17.90
2018-05-04T06:18:53.320Z,18.20
2018-05-04T06:21:29.600Z,18.50
2018-05-04T06:24:01.952Z,18.80
2018-05-04T06:26:42.738Z,19.00
2018-05-04T06:29:19.188Z,19.20
2018-05-04T06:31:49.167Z,19.40
2018-05-04T06:34:21.467Z,19.90
2018-05-04T06:36:49.952Z,19.80
2018-05-04T06:39:26.742Z,20.10
2018-05-04T06:41:55.085Z,20.20
2018-05-04T06:44:29.831Z,20.20
2018-05-04T06:46:58.780Z,20.50
2018-05-04T06:49:29.732Z,20.80
2018-05-04T06:52:06.178Z,20.90
2018-05-04T06:54:38.806Z,20.90
2018-05-04T06:57:07.889Z,21.10
2018-05-04T06:59:35.446Z,20.90
2018-05-04T07:02:03.025Z,21.10
2018-05-04T07:04:34.809Z,21.00
2018-05-04T07:07:02.426Z,21.40
2018-05-04T07:12:11.631Z,21.70
2018-05-04T07:14:42.840Z,22.10
2018-05-04T07:17:10.382Z,22.50
2018-05-04T07:19:44.231Z,22.80
2018-05-04T07:22:11.852Z,22.80
2018-05-04T07:24:39.374Z,23.10
2018-05-04T07:27:06.925Z,23.20
2018-05-04T07:29:35.260Z,23.50
2018-05-04T07:32:03.159Z,23.50
2018-05-04T07:34:30.747Z,23.70
2018-05-04T07:36:58.297Z,23.90
2018-05-04T07:39:26.632Z,23.90
2018-05-04T07:41:54.190Z,23.90
2018-05-04T07:44:21.765Z,23.90
2018-05-04T07:46:49.317Z,23.90
2018-05-04T07:49:16.889Z,23.70
2018-05-04T07:51:44.433Z,23.50
2018-05-04T07:54:11.999Z,23.40
2018-05-04T07:56:39.550Z,23.40
2018-05-04T07:59:07.127Z,22.70
2018-05-04T08:01:34.676Z,22.40
2018-05-04T08:04:02.249Z,22.20
2018-05-04T08:06:29.805Z,22.10
2018-05-04T08:08:57.382Z,22.00
2018-05-04T08:11:25.697Z,22.40
2018-05-04T08:13:53.242Z,22.40
2018-05-04T08:16:20.819Z,22.80
2018-05-04T08:18:48.369Z,23.00
2018-05-04T08:21:15.933Z,22.90
2018-05-04T08:23:43.493Z,23.30
2018-05-04T08:26:11.837Z,23.80
2018-05-04T08:28:39.394Z,23.80
2018-05-04T08:31:06.974Z,24.20
2018-05-04T08:33:34.536Z,24.60
2018-05-04T08:36:02.106Z,25.00
2018-05-04T08:38:29.666Z,24.80
2018-05-04T08:40:57.234Z,25.30
2018-05-04T08:43:24.785Z,25.50
2018-05-04T08:45:52.358Z,25.90
2018-05-04T08:48:19.925Z,26.20
2018-05-04T08:50:47.506Z,25.70
2018-05-04T08:53:15.826Z,26.50
2018-05-04T08:55:43.397Z,26.50
2018-05-04T08:58:10.945Z,26.60
2018-05-04T09:00:38.522Z,26.20
2018-05-04T09:03:06.082Z,26.20
2018-05-04T09:05:33.718Z,26.50
2018-05-04T09:08:01.237Z,26.60
2018-05-04T09:10:29.572Z,27.50
2018-05-04T09:12:57.123Z,27.50
2018-05-04T09:15:24.701Z,27.60
2018-05-04T09:17:52.245Z,28.20
2018-05-04T09:20:19.835Z,28.60
2018-05-04T09:22:47.518Z,29.20
2018-05-04T09:25:15.915Z,29.40
2018-05-04T09:27:43.425Z,29.40
2018-05-04T09:30:11.006Z,29.60
2018-05-04T09:32:38.586Z,29.90
2018-05-04T09:35:06.128Z,29.80
2018-05-04T09:37:33.697Z,30.40
2018-05-04T09:40:01.267Z,30.30
2018-05-04T09:42:28.842Z,30.20
2018-05-04T09:44:56.384Z,29.90
2018-05-04T09:47:23.957Z,30.10
2018-05-04T09:49:51.511Z,30.90
2018-05-04T09:52:19.085Z,31.10
2018-05-04T09:54:46.633Z,31.10
2018-05-04T09:57:14.214Z,31.40
2018-05-04T09:59:41.769Z,31.40
2018-05-04T10:02:09.344Z,31.30
2018-05-04T10:04:36.925Z,31.50
2018-05-04T10:07:04.497Z,31.30
2018-05-04T10:09:32.821Z,31.30
2018-05-04T10:12:00.388Z,31.30
2018-05-04T10:14:27.962Z,31.50
2018-05-04T10:16:55.533Z,31.50
2018-05-04T10:19:23.854Z,31.30
2018-05-04T10:21:51.509Z,31.30
2018-05-04T10:24:19.029Z,30.80
2018-05-04T10:26:46.618Z,31.00
2018-05-04T10:29:14.177Z,31.00
2018-05-04T10:31:41.724Z,30.80
2018-05-04T10:34:09.295Z,30.50
2018-05-04T10:36:36.841Z,29.70
2018-05-04T10:39:04.477Z,29.60
2018-05-04T10:41:31.994Z,29.10
2018-05-04T10:43:59.590Z,28.50
2018-05-04T10:46:27.153Z,28.20
2018-05-04T10:48:54.730Z,27.70
2018-05-04T10:51:23.065Z,27.10
2018-05-04T10:53:50.655Z,27.10
2018-05-04T10:56:18.209Z,26.80
2018-05-04T10:58:45.790Z,26.70
2018-05-04T11:01:14.102Z,26.60
2018-05-04T11:03:41.691Z,26.50
2018-05-04T11:06:09.257Z,26.30
2018-05-04T11:08:36.830Z,26.20
2018-05-04T11:11:04.382Z,25.90
2018-05-04T11:13:31.966Z,25.10
2018-05-04T11:15:59.523Z,25.30
2018-05-04T11:18:27.102Z,25.10
2018-05-04T11:20:54.648Z,25.10
2018-05-04T11:23:22.225Z,25.10
2018-05-04T11:25:49.774Z,24.80
2018-05-04T11:28:17.351Z,24.70
2018-05-04T11:30:44.905Z,24.60
2018-05-04T11:33:12.477Z,24.50
2018-05-04T11:35:40.049Z,24.40
2018-05-04T11:38:07.659Z,24.30
2018-05-04T11:40:35.245Z,24.30
2018-05-04T11:43:02.801Z,24.20
2018-05-04T11:45:30.368Z,24.00
2018-05-04T11:47:57.964Z,24.20
2018-05-04T11:50:25.561Z,24.00
2018-05-04T11:52:53.114Z,23.90
2018-05-04T11:55:20.792Z,23.90
2018-05-04T11:57:48.322Z,23.80
2018-05-04T12:00:16.681Z,23.60
2018-05-04T12:02:44.997Z,23.70
2018-05-04T12:05:12.574Z,23.60
2018-05-04T12:07:40.139Z,23.20
2018-05-04T12:10:08.489Z,23.60
2018-05-04T12:12:36.931Z,23.60
2018-05-04T12:15:04.526Z,23.60
2018-05-04T12:17:32.086Z,23.40
2018-05-04T12:19:59.657Z,23.40
2018-05-04T12:22:27.224Z,23.20
2018-05-04T12:24:54.764Z,23.30
2018-05-04T12:27:22.341Z,23.30
2018-05-04T12:29:49.884Z,23.30
2018-05-04T12:32:17.456Z,23.50
2018-05-04T12:34:45.019Z,23.50
2018-05-04T12:37:12.665Z,23.40
2018-05-04T12:39:40.168Z,23.50
2018-05-04T12:42:07.746Z,23.60
2018-05-04T12:44:36.065Z,23.40
2018-05-04T12:47:03.715Z,23.40
2018-05-04T12:49:31.208Z,23.50
2018-05-04T12:51:58.796Z,23.50
2018-05-04T12:54:27.122Z,23.60
2018-05-04T12:56:54.698Z,23.60
2018-05-04T12:59:22.249Z,23.60
2018-05-04T13:01:49.834Z,23.70
2018-05-04T13:04:17.394Z,23.50
2018-05-04T13:06:44.980Z,23.60
2018-05-04T13:09:12.535Z,23.70
2018-05-04T13:11:40.890Z,23.90
2018-05-04T13:14:08.450Z,23.90
2018-05-04T13:16:36.037Z,23.80
2018-05-04T13:19:03.687Z,23.70
2018-05-04T13:21:31.243Z,23.90
2018-05-04T13:23:58.820Z,23.60
2018-05-04T13:26:27.139Z,23.60
2018-05-04T13:28:54.718Z,23.50
2018-05-04T13:31:23.109Z,23.70
2018-05-04T13:33:50.705Z,23.70
2018-05-04T13:36:19.247Z,23.70
2018-05-04T13:38:48.627Z,23.80
2018-05-04T13:41:17.667Z,23.70
2018-05-04T13:43:45.970Z,23.80
2018-05-04T13:46:14.053Z,23.80
2018-05-04T13:48:42.318Z,23.90
2018-05-04T13:51:11.997Z,23.90
2018-05-04T13:53:41.384Z,24.00
2018-05-04T13:56:10.315Z,23.80
2018-05-04T13:58:39.479Z,23.80
2018-05-04T14:01:08.898Z,23.80
2018-05-04T14:03:37.116Z,23.90
2018-05-04T14:06:06.511Z,24.00
2018-05-04T14:08:34.858Z,24.00
2018-05-04T14:11:04.357Z,23.70
2018-05-04T14:13:33.013Z,23.70
2018-05-04T14:16:01.426Z,23.70
2018-05-04T14:18:30.844Z,23.70
2018-05-04T14:20:59.060Z,23.60
2018-05-04T14:23:27.860Z,23.60
2018-05-04T14:25:56.305Z,23.70
2018-05-04T14:28:24.532Z,23.70
2018-05-04T14:30:53.161Z,23.60
2018-05-04T14:33:22.368Z,23.60
2018-05-04T14:35:50.792Z,23.50
2018-05-04T14:38:18.757Z,23.50
2018-05-04T14:40:48.929Z,23.50
2018-05-04T14:43:17.094Z,23.50
2018-05-04T14:45:45.765Z,23.60
2018-05-04T14:48:14.024Z,23.60
2018-05-04T14:50:42.849Z,23.50
2018-05-04T14:53:10.959Z,23.50
2018-05-04T14:55:40.116Z,23.60
2018-05-04T14:58:08.330Z,23.50
2018-05-04T15:00:36.711Z,23.70
2018-05-04T15:03:05.007Z,23.60
2018-05-04T15:05:33.686Z,23.50
2018-05-04T15:08:03.241Z,23.50
2018-05-04T15:10:32.973Z,23.60
2018-05-04T15:13:01.501Z,23.60
2018-05-04T15:15:29.981Z,23.50
2018-05-04T15:17:58.482Z,23.50
2018-05-04T15:20:26.552Z,23.50
2018-05-04T15:22:55.121Z,23.60
2018-05-04T15:25:23.802Z,23.50
2018-05-04T15:27:52.917Z,23.40
2018-05-04T15:30:20.554Z,23.40
2018-05-04T15:32:48.104Z,23.40
2018-05-04T15:35:15.683Z,23.20
2018-05-04T15:37:43.232Z,23.30
2018-05-04T15:40:10.805Z,23.20
2018-05-04T15:42:39.125Z,22.90
2018-05-04T15:45:06.706Z,22.90
2018-05-04T15:47:34.249Z,22.90
2018-05-04T15:50:08.201Z,22.90
2018-05-04T15:52:35.751Z,22.90
2018-05-04T15:55:03.392Z,22.90
2018-05-04T15:57:31.690Z,22.90
2018-05-04T15:59:59.273Z,22.90
2018-05-04T16:02:26.844Z,22.90
2018-05-04T16:04:54.388Z,22.90
2018-05-04T16:07:21.974Z,23.00
2018-05-04T16:09:50.524Z,22.80
2018-05-04T16:12:18.101Z,22.80
2018-05-04T16:14:45.653Z,22.80
2018-05-04T16:17:14.006Z,22.90
2018-05-04T16:19:41.569Z,22.90
2018-05-04T16:22:09.147Z,22.80
2018-05-04T16:24:36.697Z,22.80
2018-05-04T16:27:05.032Z,22.80
2018-05-04T16:29:32.573Z,22.80
2018-05-04T16:32:00.154Z,22.90
2018-05-04T16:34:27.705Z,22.80
2018-05-04T16:36:56.048Z,22.70
2018-05-04T16:39:23.610Z,22.70
2018-05-04T16:41:51.191Z,22.60
2018-05-04T16:44:19.510Z,22.40
2018-05-04T16:47:03.793Z,22.40
2018-05-04T16:49:31.341Z,22.40
2018-05-04T16:51:58.911Z,22.40
2018-05-04T16:54:26.456Z,22.30
2018-05-04T16:56:54.024Z,22.40
2018-05-04T16:59:21.580Z,22.40
2018-05-04T17:01:49.155Z,22.30
2018-05-04T17:04:17.482Z,22.30
2018-05-04T17:06:45.057Z,22.30
2018-05-04T17:09:12.633Z,22.20
2018-05-04T17:11:40.209Z,22.10
2018-05-04T17:14:07.757Z,22.10
2018-05-04T17:16:35.310Z,22.00
2018-05-04T17:19:02.885Z,22.00
2018-05-04T17:21:30.440Z,21.90
2018-05-04T17:23:58.017Z,22.00
2018-05-04T17:26:25.570Z,21.90
2018-05-04T17:28:53.157Z,21.80
2018-05-04T17:31:20.710Z,21.80
2018-05-04T17:33:48.281Z,21.80
2018-05-04T17:36:15.825Z,21.70
2018-05-04T17:38:43.399Z,21.70
2018-05-04T17:41:10.954Z,21.60
2018-05-04T17:43:38.525Z,21.60
2018-05-04T17:46:06.124Z,21.50
2018-05-04T17:48:33.689Z,21.40
2018-05-04T17:51:01.246Z,21.40
2018-05-04T17:53:28.827Z,21.40
2018-05-04T17:55:56.377Z,21.30
2018-05-04T17:58:24.717Z,21.20
2018-05-04T18:00:52.260Z,21.20
2018-05-04T18:03:19.837Z,21.20
2018-05-04T18:05:47.756Z,21.10
2018-05-04T18:08:15.341Z,21.20
2018-05-04T18:10:42.890Z,21.10
2018-05-04T18:13:10.469Z,21.00
2018-05-04T18:15:38.030Z,21.00
2018-05-04T18:18:05.595Z,21.00
2018-05-04T18:20:33.145Z,20.90
2018-05-04T18:23:00.709Z,20.80
2018-05-04T18:25:28.353Z,20.80
2018-05-04T18:27:55.937Z,20.70
2018-05-04T18:30:23.485Z,20.60
2018-05-04T18:32:51.072Z,20.60
2018-05-04T18:35:18.620Z,20.60
2018-05-04T18:37:47.678Z,20.40
2018-05-04T18:40:15.281Z,20.40
2018-05-04T18:42:43.789Z,20.30
2018-05-04T18:45:11.360Z,20.30
2018-05-04T18:47:38.913Z,20.30
2018-05-04T18:50:06.496Z,20.20
2018-05-04T18:52:34.036Z,20.10
2018-05-04T18:55:01.755Z,20.20
2018-05-04T18:57:29.308Z,20.10
2018-05-04T18:59:56.932Z,19.90
2018-05-04T19:02:30.045Z,19.90
2018-05-04T19:04:57.706Z,20.00
2018-05-04T19:07:25.248Z,19.80
2018-05-04T19:09:52.826Z,19.80
2018-05-04T19:12:20.430Z,19.70
2018-05-04T19:14:47.978Z,19.70
2018-05-04T19:17:15.533Z,19.70
2018-05-04T19:19:43.121Z,19.60
2018-05-04T19:22:10.673Z,19.70
2018-05-04T19:24:39.017Z,19.60
2018-05-04T19:27:06.569Z,19.50
2018-05-04T19:29:34.145Z,19.50
2018-05-04T19:32:01.706Z,19.40
2018-05-04T19:34:29.358Z,19.40
2018-05-04T19:36:56.846Z,19.40
2018-05-04T19:39:24.424Z,19.20
2018-05-04T19:41:51.978Z,19.10
2018-05-04T19:44:19.548Z,19.30
2018-05-04T19:46:47.102Z,19.40
2018-05-04T19:49:14.680Z,19.20
2018-05-04T19:51:42.236Z,19.20
2018-05-04T19:54:09.845Z,19.10
2018-05-04T19:56:37.398Z,19.10
2018-05-04T19:59:05.713Z,19.00
2018-05-04T20:01:33.294Z,18.90
2018-05-04T20:04:00.848Z,19.10
2018-05-04T20:06:28.425Z,18.90
2018-05-04T20:08:55.989Z,18.90
2018-05-04T20:11:23.570Z,18.80
2018-05-04T20:13:51.116Z,18.80
2018-05-04T20:16:18.697Z,18.70
2018-05-04T20:18:46.240Z,18.70
2018-05-04T20:21:13.817Z,18.70
2018-05-04T20:23:42.134Z,18.70
2018-05-04T20:26:09.710Z,18.70
2018-05-04T20:28:37.379Z,18.60
2018-05-04T20:31:04.948Z,18.60
2018-05-04T20:33:32.493Z,18.60
2018-05-04T20:36:00.065Z,18.50
2018-05-04T20:38:27.616Z,18.50
2018-05-04T20:40:55.186Z,18.50
2018-05-04T20:43:22.741Z,18.50
2018-05-04T20:45:51.093Z,18.40
2018-05-04T20:48:18.636Z,18.40
2018-05-04T20:50:46.215Z,18.30
2018-05-04T20:53:13.766Z,18.30
2018-05-04T20:55:41.341Z,18.20
2018-05-04T20:58:08.947Z,18.30
2018-05-04T21:00:36.489Z,18.10
2018-05-04T21:03:04.833Z,18.00
2018-05-04T21:05:32.393Z,18.00
2018-05-04T21:07:59.972Z,18.00
2018-05-04T21:10:27.517Z,18.00
2018-05-04T21:12:55.084Z,17.90
2018-05-04T21:15:22.648Z,18.10
2018-05-04T21:17:50.223Z,18.00
2018-05-04T21:20:18.543Z,17.80
2018-05-04T21:22:46.118Z,17.70
2018-05-04T21:25:13.680Z,17.80
2018-05-04T21:27:41.257Z,17.80
2018-05-04T21:30:08.811Z,17.80
2018-05-04T21:32:36.709Z,17.70
2018-05-04T21:35:05.026Z,17.60
2018-05-04T21:37:32.609Z,17.60
2018-05-04T21:40:00.156Z,17.60
2018-05-04T21:42:27.729Z,17.50
2018-05-04T21:44:55.302Z,17.50
2018-05-04T21:47:22.872Z,17.50
2018-05-04T21:49:51.189Z,17.50
2018-05-04T21:52:18.763Z,17.50
2018-05-04T21:54:46.312Z,17.50
2018-05-04T21:57:13.888Z,17.40
2018-05-04T21:59:41.449Z,17.20
2018-05-04T22:02:09.026Z,17.30
2018-05-04T22:04:37.359Z,17.30
2018-05-04T22:07:05.017Z,17.20
2018-05-04T22:09:32.556Z,17.20
2018-05-04T22:12:00.106Z,17.10
2018-05-04T22:14:27.684Z,17.20
2018-05-04T22:16:55.237Z,17.10
2018-05-04T22:19:22.811Z,17.00
2018-05-04T22:21:50.366Z,17.00
2018-05-04T22:24:17.941Z,17.00
2018-05-04T22:26:45.486Z,16.90
2018-05-04T22:29:13.056Z,17.00
2018-05-04T22:31:40.613Z,17.00
2018-05-04T22:34:08.180Z,16.90
2018-05-04T22:36:35.737Z,16.90
2018-05-04T22:39:03.394Z,16.80
2018-05-04T22:41:30.946Z,16.70
2018-05-04T22:43:58.521Z,16.70
2018-05-04T22:46:26.192Z,16.70
2018-05-04T22:48:53.774Z,16.60
2018-05-04T22:51:22.097Z,16.60
2018-05-04T22:53:49.669Z,16.50
2018-05-04T22:56:17.231Z,16.60
2018-05-04T22:58:44.810Z,16.50
2018-05-04T23:01:12.365Z,16.50
2018-05-04T23:03:39.940Z,16.50
2018-05-04T23:06:07.495Z,16.50
2018-05-04T23:08:35.069Z,16.50
2018-05-04T23:11:03.389Z,16.40
2018-05-04T23:13:30.977Z,16.40
2018-05-04T23:15:58.529Z,16.30
2018-05-04T23:18:26.085Z,16.20
2018-05-04T23:20:53.717Z,16.20
2018-05-04T23:23:21.264Z,16.20
2018-05-04T23:25:48.841Z,16.20
2018-05-04T23:28:16.386Z,16.10
2018-05-04T23:30:43.966Z,16.20
2018-05-04T23:33:11.511Z,16.00
2018-05-04T23:35:39.085Z,16.00
2018-05-04T23:38:06.642Z,16.00
2018-05-04T23:40:34.207Z,16.00
2018-05-04T23:43:01.757Z,16.00
2018-05-04T23:45:29.338Z,15.90
2018-05-04T23:47:56.930Z,15.90
2018-05-04T23:50:24.505Z,15.80
2018-05-04T23:52:52.160Z,15.80
2018-05-04T23:55:19.734Z,15.80
2018-05-04T23:57:47.285Z,15.90
